createdAt,value
2022-12-11T00:00:01.270Z,95.01
2022-12-11T00:01:01.261Z,95.01
2022-12-11T00:02:01.320Z,95.11
2022-12-11T00:03:01.279Z,95.11
2022-12-11T00:04:01.233Z,95.15
2022-12-11T00:05:01.212Z,94.53
2022-12-11T00:06:01.233Z,94.01
2022-12-11T00:07:01.221Z,94.01
2022-12-11T00:08:01.272Z,94.21
2022-12-11T00:09:01.175Z,94.32
2022-12-11T00:10:01.165Z,94.42
2022-12-11T00:11:01.168Z,94.42
2022-12-11T00:12:01.162Z,94.11
2022-12-11T00:13:01.133Z,93.95
2022-12-11T00:14:01.115Z,94.05
2022-12-11T00:15:01.108Z,94.26
2022-12-11T00:16:01.098Z,94.46
2022-12-11T00:17:01.151Z,94.53
2022-12-11T00:18:01.077Z,94.53
2022-12-11T00:19:01.064Z,94.64
2022-12-11T00:20:01.065Z,94.64
2022-12-11T00:21:01.044Z,94.74
2022-12-11T00:22:01.055Z,94.84
2022-12-11T00:23:01.026Z,94.84
2022-12-11T00:24:01.019Z,94.95
2022-12-11T00:25:01.005Z,95.05
2022-12-11T00:26:00.991Z,95.15
2022-12-11T00:27:01.007Z,95.26
2022-12-11T00:28:01.004Z,95.26
2022-12-11T00:29:00.981Z,95.37
2022-12-11T00:30:00.948Z,95.37
2022-12-11T00:31:00.951Z,95.37
2022-12-11T00:32:01.003Z,95.37
2022-12-11T00:33:00.917Z,95.37
2022-12-11T00:34:00.913Z,95.37
2022-12-11T00:35:00.896Z,95.26
2022-12-11T00:36:00.890Z,95.37
2022-12-11T00:37:00.924Z,95.15
2022-12-11T00:38:00.877Z,95.15
2022-12-11T00:39:00.864Z,95.05
2022-12-11T00:40:00.842Z,95.05
2022-12-11T00:41:00.833Z,95.15
2022-12-11T00:42:00.828Z,95.15
2022-12-11T00:43:00.829Z,95.05
2022-12-11T00:44:00.801Z,94.64
2022-12-11T00:45:00.781Z,94.26
2022-12-11T00:46:00.832Z,94.36
2022-12-11T00:47:00.777Z,94.46
2022-12-11T00:48:00.902Z,94.46
2022-12-11T00:49:00.745Z,94.46
2022-12-11T00:50:00.731Z,94.57
2022-12-11T00:51:00.724Z,94.57
2022-12-11T00:52:00.708Z,94.68
2022-12-11T00:53:00.716Z,94.78
2022-12-11T00:54:00.713Z,94.78
2022-12-11T00:55:00.682Z,94.78
2022-12-11T00:56:00.673Z,94.68
2022-12-11T00:57:00.672Z,94.68
2022-12-11T00:58:00.660Z,94.26
2022-12-11T00:59:00.636Z,93.84
2022-12-11T01:00:00.623Z,93.95
2022-12-11T01:01:00.634Z,94.15
2022-12-11T01:02:00.602Z,94.36
2022-12-11T01:03:00.693Z,94.57
2022-12-11T01:04:00.586Z,94.68
2022-12-11T01:05:00.569Z,94.78
2022-12-11T01:06:00.559Z,94.89
2022-12-11T01:07:00.554Z,94.78
2022-12-11T01:08:00.612Z,94.78
2022-12-11T01:09:00.529Z,94.78
2022-12-11T01:10:00.517Z,94.68
2022-12-11T01:11:00.523Z,94.68
2022-12-11T01:12:00.489Z,94.46
2022-12-11T01:13:00.508Z,94.26
2022-12-11T01:14:00.486Z,94.36
2022-12-11T01:15:00.487Z,94.46
2022-12-11T01:16:00.446Z,94.57
2022-12-11T01:17:00.476Z,94.68
2022-12-11T01:18:00.447Z,94.68
2022-12-11T01:19:00.423Z,94.78
2022-12-11T01:20:00.416Z,94.99
2022-12-11T01:21:00.408Z,94.99
2022-12-11T01:22:00.384Z,94.99
2022-12-11T01:23:00.404Z,94.78
2022-12-11T01:24:00.364Z,94.68
2022-12-11T01:25:00.364Z,94.78
2022-12-11T01:26:00.345Z,94.99
2022-12-11T01:27:00.347Z,94.99
2022-12-11T01:28:00.345Z,95.09
2022-12-11T01:29:00.312Z,95.09
2022-12-11T01:30:00.323Z,95.09
2022-12-11T01:31:00.378Z,95.09
2022-12-11T01:32:00.277Z,95.09
2022-12-11T01:33:00.286Z,94.78
2022-12-11T01:34:00.253Z,94.57
2022-12-11T01:35:00.248Z,94.57
2022-12-11T01:36:00.236Z,94.68
2022-12-11T01:37:00.271Z,94.78
2022-12-11T01:38:00.234Z,94.89
2022-12-11T01:39:00.206Z,94.99
2022-12-11T01:40:00.189Z,95.20
2022-12-11T01:41:00.190Z,95.31
2022-12-11T01:42:00.171Z,95.31
2022-12-11T01:43:00.169Z,95.41
2022-12-11T01:44:00.165Z,95.41
2022-12-11T01:45:00.156Z,95.41
2022-12-11T01:46:00.237Z,95.51
2022-12-11T01:47:00.117Z,95.51
2022-12-11T01:48:00.126Z,95.51
2022-12-11T01:49:00.102Z,95.51
2022-12-11T01:50:00.084Z,95.20
2022-12-11T01:51:00.088Z,95.09
2022-12-11T01:52:00.081Z,95.09
2022-12-11T01:53:00.085Z,95.20
2022-12-11T01:54:00.045Z,95.31
2022-12-11T01:55:00.030Z,95.31
2022-12-11T01:56:00.025Z,95.41
2022-12-11T01:57:00.016Z,95.31
2022-12-11T01:58:00.029Z,95.31
2022-12-11T01:58:59.996Z,95.31
2022-12-11T02:00:00.009Z,95.31
2022-12-11T02:00:59.993Z,95.31
2022-12-11T02:01:59.956Z,95.20
2022-12-11T02:02:59.965Z,94.99
2022-12-11T02:03:59.934Z,94.99
2022-12-11T02:04:59.927Z,94.99
2022-12-11T02:05:59.919Z,94.99
2022-12-11T02:06:59.904Z,94.99
2022-12-11T02:07:59.943Z,94.99
2022-12-11T02:08:59.888Z,94.78
2022-12-11T02:09:59.872Z,94.68
2022-12-11T02:10:59.861Z,94.68
2022-12-11T02:11:59.849Z,94.89
2022-12-11T02:12:59.864Z,94.99
2022-12-11T02:13:59.825Z,95.09
2022-12-11T02:14:59.832Z,95.09
2022-12-11T02:15:59.867Z,95.20
2022-12-11T02:16:59.795Z,95.20
2022-12-11T02:17:59.811Z,95.20
2022-12-11T02:18:59.773Z,94.78
2022-12-11T02:19:59.764Z,94.20
2022-12-11T02:20:59.757Z,94.09
2022-12-11T02:21:59.774Z,93.88
2022-12-11T02:22:59.748Z,93.78
2022-12-11T02:23:59.712Z,94.03
2022-12-11T02:24:59.712Z,94.13
2022-12-11T02:25:59.708Z,94.34
2022-12-11T02:26:59.692Z,94.45
2022-12-11T02:27:59.695Z,94.62
2022-12-11T02:28:59.700Z,94.72
2022-12-11T02:29:59.664Z,94.82
2022-12-11T02:30:59.706Z,94.93
2022-12-11T02:31:59.637Z,95.03
2022-12-11T02:32:59.642Z,95.25
2022-12-11T02:33:59.633Z,95.25
2022-12-11T02:34:59.601Z,95.35
2022-12-11T02:35:59.600Z,95.35
2022-12-11T02:36:59.592Z,95.45
2022-12-11T02:37:59.589Z,95.41
2022-12-11T02:38:59.561Z,95.51
2022-12-11T02:39:59.560Z,95.62
2022-12-11T02:40:59.553Z,95.41
2022-12-11T02:41:59.529Z,95.14
2022-12-11T02:42:59.537Z,95.03
2022-12-11T02:43:59.506Z,95.03
2022-12-11T02:44:59.504Z,95.09
2022-12-11T02:45:59.520Z,95.20
2022-12-11T02:46:59.474Z,95.14
2022-12-11T02:47:59.478Z,95.20
2022-12-11T02:48:59.450Z,95.20
2022-12-11T02:49:59.439Z,95.25
2022-12-11T02:50:59.429Z,95.20
2022-12-11T02:51:59.419Z,95.31
2022-12-11T02:52:59.436Z,95.41
2022-12-11T02:53:59.399Z,95.41
2022-12-11T02:54:59.384Z,95.41
2022-12-11T02:55:59.374Z,95.51
2022-12-11T02:56:59.367Z,95.62
2022-12-11T02:57:59.380Z,95.62
2022-12-11T02:58:59.347Z,95.62
2022-12-11T02:59:59.333Z,95.72
2022-12-11T03:00:59.408Z,95.72
2022-12-11T03:01:59.347Z,95.62
2022-12-11T03:02:59.313Z,95.41
2022-12-11T03:03:59.296Z,95.31
2022-12-11T03:04:59.275Z,95.31
2022-12-11T03:05:59.258Z,95.41
2022-12-11T03:06:59.257Z,95.41
2022-12-11T03:07:59.325Z,95.51
2022-12-11T03:08:59.231Z,95.62
2022-12-11T03:09:59.232Z,95.62
2022-12-11T03:10:59.218Z,95.62
2022-12-11T03:11:59.198Z,95.62
2022-12-11T03:12:59.210Z,95.72
2022-12-11T03:13:59.188Z,95.72
2022-12-11T03:14:59.170Z,95.72
2022-12-11T03:15:59.192Z,95.72
2022-12-11T03:16:59.157Z,95.72
2022-12-11T03:17:59.142Z,95.72
2022-12-11T03:18:59.143Z,95.72
2022-12-11T03:19:59.120Z,95.72
2022-12-11T03:20:59.109Z,95.51
2022-12-11T03:21:59.092Z,95.41
2022-12-11T03:22:59.095Z,95.41
2022-12-11T03:23:59.089Z,95.31
2022-12-11T03:24:59.070Z,94.99
2022-12-11T03:25:59.046Z,95.09
2022-12-11T03:27:00.947Z,95.09
2022-12-11T03:27:59.028Z,95.03
2022-12-11T03:28:59.042Z,95.25
2022-12-11T03:29:59.017Z,95.20
2022-12-11T03:30:59.077Z,95.31
2022-12-11T03:31:58.992Z,95.41
2022-12-11T03:32:58.973Z,95.51
2022-12-11T03:33:58.986Z,95.41
2022-12-11T03:34:58.956Z,94.89
2022-12-11T03:35:58.948Z,94.82
2022-12-11T03:36:58.934Z,94.93
2022-12-11T03:37:58.921Z,95.03
2022-12-11T03:38:58.927Z,95.09
2022-12-11T03:39:58.912Z,95.20
2022-12-11T03:40:58.889Z,95.31
2022-12-11T03:41:58.879Z,95.31
2022-12-11T03:42:58.874Z,95.41
2022-12-11T03:43:58.876Z,95.41
2022-12-11T03:44:58.851Z,95.51
2022-12-11T03:45:58.860Z,95.62
2022-12-11T03:46:58.825Z,95.62
2022-12-11T03:47:58.818Z,95.51
2022-12-11T03:48:58.830Z,94.89
2022-12-11T03:49:58.795Z,94.78
2022-12-11T03:50:58.782Z,94.89
2022-12-11T03:51:58.770Z,94.89
2022-12-11T03:52:58.762Z,94.99
2022-12-11T03:53:58.765Z,95.09
2022-12-11T03:54:58.734Z,95.09
2022-12-11T03:55:58.735Z,95.20
2022-12-11T03:56:59.288Z,95.20
2022-12-11T03:57:58.706Z,95.20
2022-12-11T03:58:58.709Z,95.31
2022-12-11T03:59:58.684Z,95.20
2022-12-11T04:00:58.677Z,95.20
2022-12-11T04:01:58.728Z,95.20
2022-12-11T04:02:58.661Z,95.20
2022-12-11T04:03:58.679Z,95.31
2022-12-11T04:04:58.637Z,95.31
2022-12-11T04:05:58.627Z,95.31
2022-12-11T04:06:58.625Z,95.20
2022-12-11T04:07:58.617Z,95.20
2022-12-11T04:08:58.602Z,95.31
2022-12-11T04:09:58.581Z,95.31
2022-12-11T04:10:58.566Z,95.31
2022-12-11T04:11:58.559Z,95.31
2022-12-11T04:12:58.565Z,95.31
2022-12-11T04:13:58.561Z,95.31
2022-12-11T04:14:58.531Z,95.31
2022-12-11T04:15:58.561Z,95.31
2022-12-11T04:16:58.518Z,95.31
2022-12-11T04:17:58.489Z,95.20
2022-12-11T04:18:58.495Z,95.09
2022-12-11T04:19:58.472Z,95.09
2022-12-11T04:20:58.467Z,95.09
2022-12-11T04:21:58.449Z,95.20
2022-12-11T04:22:58.439Z,94.62
2022-12-11T04:23:58.446Z,93.99
2022-12-11T04:24:58.421Z,93.99
2022-12-11T04:25:58.424Z,93.99
2022-12-11T04:26:58.401Z,94.20
2022-12-11T04:27:58.400Z,94.30
2022-12-11T04:28:58.417Z,94.51
2022-12-11T04:29:58.366Z,94.51
2022-12-11T04:30:58.416Z,94.62
2022-12-11T04:31:58.355Z,94.72
2022-12-11T04:32:58.326Z,94.72
2022-12-11T04:33:58.344Z,94.62
2022-12-11T04:34:58.314Z,94.62
2022-12-11T04:35:58.307Z,94.62
2022-12-11T04:36:58.286Z,94.72
2022-12-11T04:37:58.279Z,94.72
2022-12-11T04:38:58.307Z,94.82
2022-12-11T04:39:58.255Z,94.82
2022-12-11T04:40:58.257Z,94.89
2022-12-11T04:41:58.232Z,94.89
2022-12-11T04:42:58.226Z,94.89
2022-12-11T04:43:58.225Z,94.99
2022-12-11T04:44:58.201Z,94.99
2022-12-11T04:45:58.252Z,95.09
2022-12-11T04:46:58.185Z,95.09
2022-12-11T04:47:58.191Z,95.09
2022-12-11T04:48:58.232Z,95.20
2022-12-11T04:49:58.151Z,95.31
2022-12-11T04:50:58.147Z,95.31
2022-12-11T04:51:58.132Z,95.41
2022-12-11T04:52:58.115Z,95.51
2022-12-11T04:53:58.265Z,95.51
2022-12-11T04:54:58.105Z,95.62
2022-12-11T04:55:58.085Z,95.62
2022-12-11T04:56:58.085Z,95.62
2022-12-11T04:57:58.057Z,95.62
2022-12-11T04:58:58.074Z,95.62
2022-12-11T04:59:58.048Z,95.72
2022-12-11T05:00:58.036Z,95.72
2022-12-11T05:01:58.051Z,95.72
2022-12-11T05:02:58.076Z,95.83
2022-12-11T05:03:58.025Z,95.83
2022-12-11T05:04:57.988Z,95.83
2022-12-11T05:05:57.976Z,95.83
2022-12-11T05:06:57.981Z,95.72
2022-12-11T05:07:58.010Z,95.62
2022-12-11T05:08:57.964Z,95.62
2022-12-11T05:09:57.935Z,95.51
2022-12-11T05:10:57.949Z,95.51
2022-12-11T05:11:57.916Z,95.51
2022-12-11T05:12:57.901Z,95.51
2022-12-11T05:13:57.906Z,95.41
2022-12-11T05:14:57.876Z,95.31
2022-12-11T05:15:57.897Z,95.31
2022-12-11T05:16:57.857Z,95.31
2022-12-11T05:17:57.847Z,95.20
2022-12-11T05:18:57.858Z,95.20
2022-12-11T05:19:57.835Z,95.09
2022-12-11T05:20:57.821Z,94.99
2022-12-11T05:21:57.813Z,94.89
2022-12-11T05:22:57.797Z,94.89
2022-12-11T05:23:57.815Z,94.89
2022-12-11T05:24:57.777Z,94.89
2022-12-11T05:25:57.785Z,94.89
2022-12-11T05:26:57.759Z,94.89
2022-12-11T05:27:57.736Z,94.89
2022-12-11T05:28:57.744Z,94.78
2022-12-11T05:29:59.619Z,94.68
2022-12-11T05:30:57.770Z,94.68
2022-12-11T05:31:57.695Z,94.57
2022-12-11T05:32:57.685Z,94.36
2022-12-11T05:33:57.697Z,94.26
2022-12-11T05:34:57.666Z,94.26
2022-12-11T05:35:57.652Z,92.94
2022-12-11T05:36:57.650Z,92.83
2022-12-11T05:37:57.646Z,93.15
2022-12-11T05:38:57.648Z,93.36
2022-12-11T05:39:57.611Z,93.26
2022-12-11T05:40:57.624Z,93.36
2022-12-11T05:41:57.592Z,93.46
2022-12-11T05:42:57.590Z,93.67
2022-12-11T05:43:57.576Z,93.88
2022-12-11T05:44:57.569Z,94.09
2022-12-11T05:45:57.545Z,94.20
2022-12-11T05:46:57.595Z,94.30
2022-12-11T05:47:57.534Z,94.09
2022-12-11T05:48:57.534Z,93.78
2022-12-11T05:49:57.510Z,93.57
2022-12-11T05:50:57.501Z,93.46
2022-12-11T05:51:57.479Z,93.46
2022-12-11T05:52:57.481Z,93.46
2022-12-11T05:53:57.476Z,93.04
2022-12-11T05:54:57.449Z,92.21
2022-12-11T05:55:57.435Z,91.69
2022-12-11T05:56:57.433Z,91.89
2022-12-11T05:57:57.422Z,92.21
2022-12-11T05:58:57.412Z,92.31
2022-12-11T05:59:57.424Z,92.31
2022-12-11T06:00:57.389Z,92.42
2022-12-11T06:01:57.551Z,92.52
2022-12-11T06:02:57.488Z,92.73
2022-12-11T06:03:57.355Z,92.73
2022-12-11T06:04:57.370Z,92.83
2022-12-11T06:05:57.349Z,92.94
2022-12-11T06:06:57.322Z,93.04
2022-12-11T06:07:57.340Z,93.11
2022-12-11T06:08:57.298Z,93.15
2022-12-11T06:09:57.314Z,93.15
2022-12-11T06:10:57.283Z,93.26
2022-12-11T06:11:57.287Z,93.15
2022-12-11T06:12:57.253Z,93.15
2022-12-11T06:13:57.241Z,93.15
2022-12-11T06:14:57.255Z,93.11
2022-12-11T06:15:57.247Z,93.11
2022-12-11T06:16:57.225Z,93.21
2022-12-11T06:17:57.209Z,93.21
2022-12-11T06:18:58.611Z,93.21
2022-12-11T06:19:57.204Z,93.21
2022-12-11T06:20:57.170Z,93.21
2022-12-11T06:21:57.156Z,93.32
2022-12-11T06:22:57.149Z,93.32
2022-12-11T06:23:57.149Z,93.42
2022-12-11T06:24:57.139Z,93.42
2022-12-11T06:25:57.113Z,93.42
2022-12-11T06:26:57.113Z,93.42
2022-12-11T06:27:57.100Z,93.46
2022-12-11T06:28:57.085Z,93.57
2022-12-11T06:29:57.098Z,93.63
2022-12-11T06:30:57.067Z,93.63
2022-12-11T06:31:57.142Z,93.67
2022-12-11T06:32:57.041Z,93.67
2022-12-11T06:33:57.036Z,93.67
2022-12-11T06:34:57.062Z,93.67
2022-12-11T06:35:57.031Z,93.78
2022-12-11T06:36:57.015Z,93.78
2022-12-11T06:37:56.994Z,93.88
2022-12-11T06:38:56.997Z,93.88
2022-12-11T06:39:56.985Z,93.88
2022-12-11T06:40:56.968Z,93.88
2022-12-11T06:41:56.947Z,93.93
2022-12-11T06:42:56.937Z,94.03
2022-12-11T06:43:56.917Z,94.03
2022-12-11T06:44:56.930Z,94.03
2022-12-11T06:46:03.466Z,94.03
2022-12-11T06:46:56.907Z,94.03
2022-12-11T06:47:56.885Z,94.18
2022-12-11T06:48:56.868Z,94.28
2022-12-11T06:49:56.878Z,94.38
2022-12-11T06:50:56.849Z,94.49
2022-12-11T06:51:56.842Z,94.49
2022-12-11T06:52:56.841Z,94.60
2022-12-11T06:53:56.816Z,94.64
2022-12-11T06:54:56.847Z,94.74
2022-12-11T06:55:56.799Z,94.74
2022-12-11T06:56:56.788Z,94.85
2022-12-11T06:57:56.782Z,94.95
2022-12-11T06:58:56.766Z,95.00
2022-12-11T06:59:56.765Z,95.10
2022-12-11T07:00:56.765Z,95.10
2022-12-11T07:01:56.788Z,95.10
2022-12-11T07:02:56.717Z,95.21
2022-12-11T07:03:56.712Z,95.21
2022-12-11T07:04:56.713Z,95.31
2022-12-11T07:05:56.693Z,95.42
2022-12-11T07:06:56.675Z,95.52
2022-12-11T07:07:56.769Z,95.46
2022-12-11T07:08:56.653Z,95.56
2022-12-11T07:09:56.657Z,95.56
2022-12-11T07:10:56.632Z,95.67
2022-12-11T07:11:56.625Z,95.67
2022-12-11T07:12:56.612Z,95.67
2022-12-11T07:13:56.601Z,95.67
2022-12-11T07:14:56.617Z,95.78
2022-12-11T07:15:56.572Z,95.78
2022-12-11T07:16:56.577Z,95.92
2022-12-11T07:17:56.557Z,95.92
2022-12-11T07:18:56.551Z,96.03
2022-12-11T07:19:56.549Z,96.03
2022-12-11T07:20:56.531Z,96.03
2022-12-11T07:21:56.514Z,96.13
2022-12-11T07:22:56.505Z,96.24
2022-12-11T07:23:56.496Z,96.24
2022-12-11T07:24:56.505Z,96.24
2022-12-11T07:25:56.476Z,96.24
2022-12-11T07:26:56.460Z,96.24
2022-12-11T07:27:56.477Z,96.34
2022-12-11T07:28:56.441Z,96.34
2022-12-11T07:29:56.452Z,96.45
2022-12-11T07:30:56.422Z,96.34
2022-12-11T07:31:56.533Z,96.34
2022-12-11T07:32:56.439Z,96.28
2022-12-11T07:33:56.390Z,96.28
2022-12-11T07:34:56.390Z,96.28
2022-12-11T07:35:56.359Z,96.39
2022-12-11T07:36:56.352Z,96.49
2022-12-11T07:37:56.340Z,96.49
2022-12-11T07:38:56.331Z,96.49
2022-12-11T07:39:56.359Z,96.39
2022-12-11T07:40:56.325Z,96.49
2022-12-11T07:41:56.301Z,96.49
2022-12-11T07:42:56.295Z,96.59
2022-12-11T07:43:56.285Z,96.59
2022-12-11T07:44:56.293Z,96.59
2022-12-11T07:45:56.290Z,96.59
2022-12-11T07:46:56.261Z,96.59
2022-12-11T07:47:56.243Z,96.59
2022-12-11T07:48:56.233Z,96.59
2022-12-11T07:49:56.235Z,96.70
2022-12-11T07:50:56.213Z,96.59
2022-12-11T07:51:56.195Z,96.70
2022-12-11T07:52:56.189Z,96.64
2022-12-11T07:53:56.178Z,96.64
2022-12-11T07:54:56.178Z,96.64
2022-12-11T07:55:56.154Z,96.53
2022-12-11T07:56:56.149Z,96.53
2022-12-11T07:57:56.127Z,96.53
2022-12-11T07:58:56.122Z,96.53
2022-12-11T07:59:56.133Z,96.64
2022-12-11T08:00:56.136Z,96.75
2022-12-11T08:01:56.137Z,96.75
2022-12-11T08:02:56.112Z,96.85
2022-12-11T08:03:56.064Z,96.85
2022-12-11T08:04:56.069Z,96.85
2022-12-11T08:05:56.041Z,96.85
2022-12-11T08:06:56.035Z,96.95
2022-12-11T08:07:56.145Z,96.95
2022-12-11T08:08:56.014Z,96.85
2022-12-11T08:09:56.024Z,96.85
2022-12-11T08:10:55.993Z,96.95
2022-12-11T08:11:55.981Z,96.95
2022-12-11T08:12:55.981Z,96.95
2022-12-11T08:13:55.958Z,96.95
2022-12-11T08:14:55.966Z,96.85
2022-12-11T08:15:55.940Z,96.85
2022-12-11T08:16:55.946Z,96.85
2022-12-11T08:17:55.913Z,96.85
2022-12-11T08:18:55.927Z,96.85
2022-12-11T08:19:55.905Z,96.85
2022-12-11T08:20:55.995Z,96.85
2022-12-11T08:21:55.870Z,96.85
2022-12-11T08:22:59.016Z,96.85
2022-12-11T08:23:55.851Z,96.85
2022-12-11T08:24:55.875Z,96.85
2022-12-11T08:25:55.852Z,96.85
2022-12-11T08:26:55.823Z,96.85
2022-12-11T08:27:55.819Z,96.85
2022-12-11T08:28:55.795Z,96.85
2022-12-11T08:29:55.813Z,96.75
2022-12-11T08:30:55.800Z,96.75
2022-12-11T08:31:55.762Z,96.75
2022-12-11T08:32:55.754Z,96.75
2022-12-11T08:33:55.774Z,96.75
2022-12-11T08:34:55.761Z,96.75
2022-12-11T08:35:55.747Z,96.75
2022-12-11T08:36:55.717Z,96.75
2022-12-11T08:37:55.724Z,96.75
2022-12-11T08:38:55.713Z,96.75
2022-12-11T08:39:55.712Z,96.75
2022-12-11T08:40:55.675Z,96.75
2022-12-11T08:41:55.689Z,96.64
2022-12-11T08:42:55.658Z,96.64
2022-12-11T08:43:55.662Z,96.64
2022-12-11T08:44:55.651Z,96.64
2022-12-11T08:45:55.680Z,96.64
2022-12-11T08:46:55.609Z,96.75
2022-12-11T08:47:55.608Z,96.75
2022-12-11T08:48:55.602Z,96.75
2022-12-11T08:49:55.604Z,96.75
2022-12-11T08:50:55.573Z,96.75
2022-12-11T08:51:55.555Z,96.75
2022-12-11T08:52:55.547Z,96.75
2022-12-11T08:53:55.536Z,96.75
2022-12-11T08:54:55.543Z,96.85
2022-12-11T08:55:55.503Z,96.89
2022-12-11T08:56:58.184Z,96.85
2022-12-11T08:57:55.502Z,96.95
2022-12-11T08:58:55.484Z,96.85
2022-12-11T08:59:55.493Z,96.85
2022-12-11T09:00:55.521Z,96.85
2022-12-11T09:01:55.452Z,96.95
2022-12-11T09:02:55.486Z,96.95
2022-12-11T09:03:55.445Z,96.95
2022-12-11T09:04:55.454Z,96.95
2022-12-11T09:05:55.410Z,97.00
2022-12-11T09:06:55.396Z,96.89
2022-12-11T09:07:55.510Z,96.89
2022-12-11T09:08:55.376Z,96.89
2022-12-11T09:09:55.397Z,96.89
2022-12-11T09:10:55.386Z,96.89
2022-12-11T09:11:55.363Z,96.79
2022-12-11T09:12:55.343Z,96.89
2022-12-11T09:13:55.326Z,97.00
2022-12-11T09:14:55.337Z,97.00
2022-12-11T09:15:55.345Z,97.00
2022-12-11T09:16:55.315Z,97.11
2022-12-11T09:17:55.282Z,97.11
2022-12-11T09:18:55.266Z,97.21
2022-12-11T09:19:55.282Z,97.21
2022-12-11T09:20:55.252Z,97.21
2022-12-11T09:21:55.242Z,97.31
2022-12-11T09:22:55.236Z,97.31
2022-12-11T09:23:55.249Z,97.21
2022-12-11T09:24:55.218Z,97.31
2022-12-11T09:25:55.197Z,97.31
2022-12-11T09:26:55.191Z,97.31
2022-12-11T09:27:55.174Z,97.31
2022-12-11T09:28:55.163Z,97.42
2022-12-11T09:29:55.188Z,97.42
2022-12-11T09:30:55.246Z,97.42
2022-12-11T09:31:55.157Z,97.42
2022-12-11T09:32:55.133Z,97.53
2022-12-11T09:33:55.102Z,97.53
2022-12-11T09:34:55.137Z,97.53
2022-12-11T09:35:55.092Z,97.42
2022-12-11T09:36:55.075Z,97.42
2022-12-11T09:37:55.057Z,97.42
2022-12-11T09:38:55.060Z,97.42
2022-12-11T09:39:55.068Z,97.31
2022-12-11T09:40:55.040Z,97.31
2022-12-11T09:41:55.032Z,97.31
2022-12-11T09:42:55.018Z,97.31
2022-12-11T09:43:55.001Z,97.21
2022-12-11T09:44:55.031Z,96.47
2022-12-11T09:45:55.009Z,96.37
2022-12-11T09:46:55.011Z,96.37
2022-12-11T09:47:54.955Z,96.37
2022-12-11T09:48:54.955Z,96.43
2022-12-11T09:49:54.976Z,96.43
2022-12-11T09:50:54.933Z,96.53
2022-12-11T09:51:54.920Z,96.53
2022-12-11T09:52:54.917Z,96.43
2022-12-11T09:53:54.905Z,96.12
2022-12-11T09:54:54.911Z,96.12
2022-12-11T09:55:54.887Z,96.12
2022-12-11T09:56:54.872Z,96.22
2022-12-11T09:57:54.855Z,96.33
2022-12-11T09:58:54.854Z,96.33
2022-12-11T09:59:57.350Z,96.43
2022-12-11T10:00:54.834Z,96.43
2022-12-11T10:01:54.860Z,96.53
2022-12-11T10:02:54.835Z,96.53
2022-12-11T10:03:54.803Z,96.64
2022-12-11T10:04:54.796Z,96.64
2022-12-11T10:06:04.751Z,96.64
2022-12-11T10:06:54.761Z,96.43
2022-12-11T10:07:54.747Z,96.22
2022-12-11T10:08:55.447Z,96.22
2022-12-11T10:09:55.517Z,96.33
2022-12-11T10:10:54.722Z,96.22
2022-12-11T10:11:56.879Z,96.12
2022-12-11T10:12:54.685Z,96.22
2022-12-11T10:13:54.707Z,96.22
2022-12-11T10:14:54.832Z,96.33
2022-12-11T10:15:54.999Z,96.33
2022-12-11T10:16:54.648Z,96.33
2022-12-11T10:17:55.412Z,96.22
2022-12-11T10:18:54.632Z,96.22
2022-12-11T10:19:54.615Z,96.33
2022-12-11T10:20:54.632Z,96.22
2022-12-11T10:21:54.592Z,96.22
2022-12-11T10:22:54.579Z,96.12
2022-12-11T10:23:54.656Z,96.22
2022-12-11T10:25:11.529Z,95.70
2022-12-11T10:25:54.579Z,95.48
2022-12-11T10:26:54.543Z,95.48
2022-12-11T10:27:54.527Z,95.23
2022-12-11T10:28:54.520Z,95.23
2022-12-11T10:29:54.507Z,95.13
2022-12-11T10:30:54.598Z,95.02
2022-12-11T10:31:54.544Z,94.92
2022-12-11T10:32:54.632Z,95.02
2022-12-11T10:33:54.473Z,95.02
2022-12-11T10:34:54.452Z,95.13
2022-12-11T10:35:54.470Z,95.13
2022-12-11T10:37:00.192Z,95.13
2022-12-11T10:37:54.434Z,95.13
2022-12-11T10:38:54.415Z,95.13
2022-12-11T10:39:54.415Z,93.97
2022-12-11T10:40:54.413Z,93.76
2022-12-11T10:41:54.374Z,93.87
2022-12-11T10:42:54.385Z,93.76
2022-12-11T10:43:54.410Z,94.08
2022-12-11T10:44:54.402Z,94.29
2022-12-11T10:45:55.610Z,94.49
2022-12-11T10:46:54.369Z,94.45
2022-12-11T10:47:54.328Z,94.56
2022-12-11T10:48:54.302Z,94.60
2022-12-11T10:49:54.420Z,94.49
2022-12-11T10:50:54.326Z,94.49
2022-12-11T10:51:54.277Z,94.60
2022-12-11T10:52:54.267Z,94.71
2022-12-11T10:53:54.259Z,94.81
2022-12-11T10:54:54.249Z,95.02
2022-12-11T10:55:54.251Z,95.13
2022-12-11T10:56:54.909Z,95.13
2022-12-11T10:57:54.210Z,95.13
2022-12-11T10:58:54.203Z,95.13
2022-12-11T10:59:54.406Z,95.13
2022-12-11T11:00:54.195Z,95.23
2022-12-11T11:01:54.219Z,95.13
2022-12-11T11:02:54.550Z,95.02
2022-12-11T11:03:54.149Z,94.71
2022-12-11T11:04:54.128Z,93.55
2022-12-11T11:05:54.145Z,92.61
2022-12-11T11:06:54.174Z,92.25
2022-12-11T11:07:54.159Z,92.35
2022-12-11T11:08:54.106Z,92.67
2022-12-11T11:09:54.105Z,92.77
2022-12-11T11:10:54.089Z,92.99
2022-12-11T11:11:54.066Z,93.30
2022-12-11T11:12:54.056Z,93.40
2022-12-11T11:13:54.114Z,93.51
2022-12-11T11:14:54.040Z,93.62
2022-12-11T11:15:54.139Z,93.72
2022-12-11T11:16:54.007Z,93.82
2022-12-11T11:17:55.897Z,94.04
2022-12-11T11:18:54.002Z,94.14
2022-12-11T11:19:53.990Z,93.62
2022-12-11T11:20:53.994Z,93.30
2022-12-11T11:21:53.953Z,93.40
2022-12-11T11:22:53.945Z,93.51
2022-12-11T11:23:53.945Z,93.62
2022-12-11T11:24:53.925Z,93.72
2022-12-11T11:25:53.926Z,94.04
2022-12-11T11:27:12.869Z,94.24
2022-12-11T11:27:53.915Z,94.24
2022-12-11T11:28:53.881Z,94.14
2022-12-11T11:29:53.879Z,92.88
2022-12-11T11:30:54.073Z,91.94
2022-12-11T11:31:53.846Z,92.14
2022-12-11T11:32:53.856Z,92.25
2022-12-11T11:33:53.822Z,92.32
2022-12-11T11:34:53.839Z,92.52
2022-12-11T11:35:53.903Z,92.83
2022-12-11T11:36:53.797Z,92.83
2022-12-11T11:37:53.788Z,93.15
2022-12-11T11:38:53.776Z,93.26
2022-12-11T11:39:53.760Z,92.63
2022-12-11T11:40:58.142Z,92.10
2022-12-11T11:41:53.773Z,91.68
2022-12-11T11:42:53.854Z,91.89
2022-12-11T11:43:53.715Z,92.10
2022-12-11T11:44:53.712Z,92.63
2022-12-11T11:45:53.764Z,92.83
2022-12-11T11:46:54.018Z,92.94
2022-12-11T11:47:53.678Z,92.94
2022-12-11T11:48:53.669Z,93.05
2022-12-11T11:49:53.675Z,93.26
2022-12-11T11:50:53.730Z,93.15
2022-12-11T11:51:53.635Z,93.15
2022-12-11T11:52:53.634Z,93.26
2022-12-11T11:53:53.625Z,93.36
2022-12-11T11:54:53.607Z,93.47
2022-12-11T11:55:53.607Z,93.47
2022-12-11T11:56:53.683Z,93.57
2022-12-11T11:57:53.572Z,93.68
2022-12-11T11:58:53.566Z,93.78
2022-12-11T11:59:53.547Z,94.10
2022-12-11T12:00:53.548Z,94.41
2022-12-11T12:01:53.533Z,94.51
2022-12-11T12:02:53.541Z,94.51
2022-12-11T12:03:53.505Z,94.45
2022-12-11T12:04:53.499Z,94.35
2022-12-11T12:05:53.500Z,94.35
2022-12-11T12:06:53.513Z,94.14
2022-12-11T12:07:53.487Z,94.04
2022-12-11T12:08:53.469Z,94.14
2022-12-11T12:09:53.480Z,94.14
2022-12-11T12:10:53.457Z,93.93
2022-12-11T12:11:53.445Z,93.30
2022-12-11T12:12:54.012Z,92.32
2022-12-11T12:13:53.398Z,92.21
2022-12-11T12:14:53.392Z,92.32
2022-12-11T12:15:53.556Z,92.52
2022-12-11T12:16:53.975Z,92.73
2022-12-11T12:17:55.663Z,92.42
2022-12-11T12:18:53.350Z,92.52
2022-12-11T12:19:53.338Z,92.73
2022-12-11T12:20:53.345Z,92.83
2022-12-11T12:21:53.317Z,92.94
2022-12-11T12:22:53.602Z,92.94
2022-12-11T12:23:53.296Z,93.05
2022-12-11T12:24:53.284Z,93.57
2022-12-11T12:25:53.298Z,93.78
2022-12-11T12:26:53.255Z,93.99
2022-12-11T12:27:53.557Z,93.99
2022-12-11T12:28:53.279Z,94.10
2022-12-11T12:29:53.245Z,94.10
2022-12-11T12:30:53.232Z,94.20
2022-12-11T12:31:53.278Z,94.10
2022-12-11T12:32:53.224Z,94.10
2022-12-11T12:33:53.186Z,94.10
2022-12-11T12:34:53.178Z,94.31
2022-12-11T12:35:53.177Z,94.41
2022-12-11T12:36:53.153Z,94.31
2022-12-11T12:37:53.153Z,93.78
2022-12-11T12:38:53.139Z,93.36
2022-12-11T12:39:53.121Z,93.47
2022-12-11T12:40:53.131Z,93.57
2022-12-11T12:41:53.105Z,93.68
2022-12-11T12:42:53.104Z,93.78
2022-12-11T12:43:53.191Z,93.78
2022-12-11T12:44:53.085Z,93.78
2022-12-11T12:45:53.253Z,93.88
2022-12-11T12:46:53.043Z,93.99
2022-12-11T12:47:53.683Z,94.20
2022-12-11T12:48:53.057Z,94.62
2022-12-11T12:49:53.093Z,94.83
2022-12-11T12:50:53.084Z,94.93
2022-12-11T12:51:52.988Z,94.93